Time;durP1;ratioP1;P1;durP2;ratioP2;P2;SDS_P1;SDS_P2;PMS_P1;PMS_P2;Temp;Humidity;BMP_temperature;BMP_pressure;BME280_temperature;BME280_humidity;BME280_pressure;Samples;Min_cycle;Max_cycle;Signal;HPM_P1;HPM_P2
2021/06/02 00:00:11;;;;;;;4.73;2.50;;;;;;;12.41;48.41;95486.69;5051510;28;20186;-72
2021/06/02 00:02:45;;;;;;;3.00;2.70;;;;;;;12.44;48.42;95475.94;5051212;28;20182;-71
2021/06/02 00:05:11;;;;;;;5.50;2.77;;;;;;;12.46;48.13;95481.00;5051407;28;20205;-72
2021/06/02 00:07:39;;;;;;;2.80;2.13;;;;;;;12.55;48.07;95479.22;5052416;28;20235;-71
2021/06/02 00:10:05;;;;;;;3.20;2.40;;;;;;;12.55;47.83;95479.22;5051218;28;20185;-71
2021/06/02 00:12:30;;;;;;;2.50;2.30;;;;;;;12.55;48.12;95476.63;5051090;28;20181;-72
2021/06/02 00:14:56;;;;;;;5.60;2.53;;;;;;;12.47;48.05;95477.41;5049811;28;20293;-72
2021/06/02 00:17:21;;;;;;;4.77;2.70;;;;;;;12.50;47.82;95481.50;5050976;28;20197;-72
2021/06/02 00:19:47;;;;;;;3.30;2.57;;;;;;;12.56;47.87;95475.66;5034446;28;20216;-72
2021/06/02 00:22:12;;;;;;;3.93;2.37;;;;;;;12.53;47.87;95468.94;5052191;28;20665;-71
2021/06/02 00:24:38;;;;;;;2.40;2.20;;;;;;;12.54;47.80;95467.97;5032378;28;20708;-72
2021/06/02 00:27:06;;;;;;;3.77;2.20;;;;;;;12.53;47.90;95468.94;5034378;28;20227;-72
2021/06/02 00:29:33;;;;;;;3.50;2.97;;;;;;;12.48;47.48;95463.44;5052282;28;20227;-71
2021/06/02 00:31:59;;;;;;;2.73;2.47;;;;;;;12.48;47.33;95460.81;5050750;28;20530;-72
2021/06/02 00:34:24;;;;;;;4.80;2.47;;;;;;;12.48;47.20;95471.25;5050754;28;20212;-73
2021/06/02 00:36:50;;;;;;;3.70;2.40;;;;;;;12.54;46.91;95464.56;5049818;28;20201;-73
2021/06/02 00:39:16;;;;;;;3.80;2.63;;;;;;;12.56;47.04;95465.22;5050773;28;20189;-72
2021/06/02 00:41:43;;;;;;;2.77;2.30;;;;;;;12.56;47.06;95468.66;5050540;28;20633;-72
2021/06/02 00:44:11;;;;;;;2.90;2.70;;;;;;;12.53;47.49;95468.13;5050664;28;20189;-72
2021/06/02 00:47:09;;;;;;;2.40;1.77;;;;;;;12.51;47.35;95468.31;5031907;28;20182;-72
2021/06/02 00:49:35;;;;;;;3.43;2.50;;;;;;;12.46;47.36;95460.97;4983546;28;20200;-73
2021/06/02 00:52:03;;;;;;;3.43;2.87;;;;;;;12.43;47.74;95466.50;4989905;28;20714;-73
2021/06/02 00:54:31;;;;;;;3.27;2.27;;;;;;;12.31;48.05;95472.19;4990185;28;20299;-71
2021/06/02 00:57:25;;;;;;;6.13;2.90;;;;;;;12.26;47.84;95458.81;4990943;28;20210;-72
2021/06/02 00:59:57;;;;;;;2.73;2.30;;;;;;;12.25;48.25;95457.19;4889431;29;20237;-72
2021/06/02 01:02:23;;;;;;;4.97;2.33;;;;;;;12.23;47.89;95456.53;4896880;29;20201;-73
2021/06/02 01:04:50;;;;;;;4.40;2.13;;;;;;;12.39;47.25;95464.38;4913095;29;20217;-73
2021/06/02 01:07:15;;;;;;;2.60;2.40;;;;;;;12.38;47.54;95460.97;4912249;29;20199;-73
2021/06/02 01:09:46;;;;;;;4.13;2.40;;;;;;;12.28;47.67;95468.13;4912925;29;20229;-71
2021/06/02 01:12:16;;;;;;;3.10;2.60;;;;;;;12.15;47.97;95463.34;4912893;29;20705;-72
2021/06/02 01:14:42;;;;;;;3.77;2.20;;;;;;;12.16;47.79;95457.16;4912673;29;20229;-72
2021/06/02 01:17:10;;;;;;;2.73;2.13;;;;;;;12.27;47.88;95461.25;4913060;29;20202;-72
2021/06/02 01:19:35;;;;;;;2.60;2.17;;;;;;;12.10;48.42;95454.38;4911528;29;20241;-72
2021/06/02 01:22:01;;;;;;;3.53;2.23;;;;;;;12.14;47.95;95459.13;4912723;29;20273;-73
2021/06/02 01:24:27;;;;;;;2.40;2.20;;;;;;;12.18;47.98;95457.81;4924421;28;20208;-72
2021/06/02 01:26:56;;;;;;;5.60;2.40;;;;;;;12.25;47.69;95462.41;4954445;28;20185;-72
2021/06/02 01:29:23;;;;;;;3.97;2.30;;;;;;;12.16;47.65;95456.34;4934690;28;20204;-73
2021/06/02 01:31:54;;;;;;;5.13;2.37;;;;;;;12.18;47.38;95468.22;4953885;28;20622;-72
2021/06/02 01:34:54;;;;;;;4.40;2.77;;;;;;;12.12;47.71;95462.88;4954063;28;20236;-72
2021/06/02 01:37:45;;;;;;;2.53;2.30;;;;;;;12.04;47.86;95455.03;5044726;28;20209;-73
2021/06/02 01:40:41;;;;;;;2.80;2.40;;;;;;;12.04;48.22;95455.03;5050369;28;20658;-73
2021/06/02 01:43:47;;;;;;;3.63;2.60;;;;;;;12.05;47.97;95454.06;5051109;28;20186;-73
2021/06/02 01:47:04;;;;;;;2.30;2.10;;;;;;;11.93;48.29;95445.75;5021158;28;20185;-73
2021/06/02 01:49:35;;;;;;;4.70;2.33;;;;;;;11.94;48.43;95447.38;5016397;28;20194;-73
2021/06/02 01:52:28;;;;;;;3.97;2.77;;;;;;;11.85;48.12;95450.91;5047730;28;20697;-72
2021/06/02 01:55:18;;;;;;;3.80;2.20;;;;;;;11.84;48.49;95454.50;5048877;28;20213;-72
2021/06/02 01:58:05;;;;;;;2.53;2.33;;;;;;;11.85;48.51;95456.13;5031049;28;20701;-72
2021/06/02 02:00:52;;;;;;;2.83;2.33;;;;;;;11.91;48.25;95445.88;5030966;28;20179;-71
2021/06/02 02:03:19;;;;;;;2.67;2.00;;;;;;;11.91;48.54;95447.66;5050039;28;20237;-71
2021/06/02 02:06:20;;;;;;;3.30;2.90;;;;;;;11.81;48.74;95442.59;5049660;28;20190;-72
2021/06/02 02:09:04;;;;;;;3.00;2.07;;;;;;;11.80;48.75;95445.34;5050913;28;20210;-71
2021/06/02 02:11:37;;;;;;;3.47;2.13;;;;;;;11.72;48.84;95450.50;5049666;28;20660;-72
2021/06/02 02:14:53;;;;;;;2.60;2.20;;;;;;;11.70;48.77;95442.84;5083829;28;20197;-72
2021/06/02 02:17:37;;;;;;;3.30;1.80;;;;;;;11.66;49.16;95443.31;5053373;28;20225;-72
2021/06/02 02:20:24;;;;;;;2.60;2.30;;;;;;;11.62;49.27;95435.03;5053581;28;20182;-72
2021/06/02 02:23:20;;;;;;;2.97;2.37;;;;;;;11.52;49.85;95444.72;5053618;28;20185;-72
2021/06/02 02:26:09;;;;;;;2.07;1.90;;;;;;;11.35;50.06;95443.84;5048292;28;20671;-72
2021/06/02 02:29:06;;;;;;;4.57;2.30;;;;;;;11.29;50.27;95441.84;5053437;28;20174;-72
2021/06/02 02:31:50;;;;;;;3.03;2.20;;;;;;;11.34;50.03;95442.22;5054271;28;20185;-72
2021/06/02 02:34:25;;;;;;;3.53;2.77;;;;;;;11.36;49.46;95445.47;5052103;28;20288;-72
2021/06/02 02:36:55;;;;;;;4.43;2.50;;;;;;;11.44;49.74;95442.09;5051067;28;20193;-72
2021/06/02 02:39:28;;;;;;;5.13;2.40;;;;;;;11.30;50.11;95446.88;5053063;28;20196;-72
2021/06/02 02:42:21;;;;;;;2.40;2.20;;;;;;;11.26;50.16;95449.97;5036226;28;20192;-72
2021/06/02 02:44:57;;;;;;;3.57;2.50;;;;;;;11.20;50.17;95453.16;5035098;28;20220;-72
2021/06/02 02:47:32;;;;;;;5.70;2.23;;;;;;;11.23;50.13;95450.28;5044863;28;20181;-72
2021/06/02 02:50:03;;;;;;;2.33;2.10;;;;;;;11.35;49.84;95449.03;5054174;28;20173;-73
2021/06/02 02:52:41;;;;;;;2.57;2.33;;;;;;;11.40;49.65;95453.78;5052588;28;20189;-71
2021/06/02 02:55:16;;;;;;;3.40;2.53;;;;;;;11.51;49.05;95450.91;5051600;28;20227;-71
2021/06/02 02:57:59;;;;;;;3.17;2.33;;;;;;;11.59;48.71;95456.97;5036136;28;20193;-72
2021/06/02 03:00:38;;;;;;;3.80;2.20;;;;;;;11.61;48.71;95457.63;5053686;28;20181;-72
2021/06/02 03:03:22;;;;;;;2.20;2.00;;;;;;;11.68;48.49;95454.41;5052728;28;20272;-72
2021/06/02 03:05:57;;;;;;;3.90;2.30;;;;;;;11.71;48.65;95461.88;5051552;28;20189;-71
2021/06/02 03:08:27;;;;;;;2.67;2.17;;;;;;;11.73;48.44;95463.34;5033925;28;20252;-71
2021/06/02 03:11:06;;;;;;;6.53;2.03;;;;;;;11.77;48.50;95463.88;5032371;28;20183;-72
2021/06/02 03:13:37;;;;;;;5.03;2.50;;;;;;;11.73;48.49;95463.34;5031909;28;20209;-72
2021/06/02 03:16:06;;;;;;;3.13;2.37;;;;;;;11.78;48.02;95462.88;5047192;28;20676;-71
2021/06/02 03:19:10;;;;;;;2.53;2.20;;;;;;;11.63;48.56;95470.47;5052202;28;20205;-72
2021/06/02 03:21:56;;;;;;;4.40;2.40;;;;;;;11.61;48.67;95465.41;5039709;28;20654;-74
2021/06/02 03:24:22;;;;;;;3.63;2.47;;;;;;;11.62;48.98;95471.44;5052048;28;20200;-72
2021/06/02 03:26:54;;;;;;;3.03;2.20;;;;;;;11.68;48.46;95470.81;5052476;28;20641;-72
2021/06/02 03:29:37;;;;;;;3.10;2.57;;;;;;;11.68;48.63;95475.22;5052159;28;20189;-72
2021/06/02 03:32:35;;;;;;;2.70;2.13;;;;;;;11.69;48.72;95471.63;5051910;28;20265;-72
2021/06/02 03:35:20;;;;;;;3.30;2.50;;;;;;;11.66;48.61;95471.94;4999895;28;20339;-71
2021/06/02 03:38:01;;;;;;;5.20;2.13;;;;;;;11.75;48.84;95471.00;5050390;28;20780;-72
2021/06/02 03:40:52;;;;;;;3.77;2.27;;;;;;;11.72;49.02;95471.31;5031701;28;20187;-72
2021/06/02 03:43:23;;;;;;;3.87;2.57;;;;;;;11.71;48.93;95473.09;4974954;28;20246;-72
2021/06/02 03:46:08;;;;;;;2.70;2.40;;;;;;;11.64;49.35;95475.50;4991583;28;20639;-72
2021/06/02 03:48:46;;;;;;;2.93;2.40;;;;;;;11.78;49.12;95473.28;4976679;28;20237;-72
2021/06/02 03:51:30;;;;;;;3.13;2.53;;;;;;;11.82;48.85;95478.03;4994243;28;20245;-72
2021/06/02 03:54:14;;;;;;;3.83;2.30;;;;;;;13.55;44.98;95483.25;5010795;28;20218;-72
2021/06/02 03:56:51;;;;;;;9.83;2.57;;;;;;;15.24;40.87;95477.19;5011014;28;20622;-72
2021/06/02 03:59:35;;;;;;;4.63;2.40;;;;;;;17.02;37.14;95485.63;5010327;28;20579;-72
2021/06/02 04:02:25;;;;;;;3.67;2.40;;;;;;;17.89;34.68;95479.19;5010502;28;20193;-72
2021/06/02 04:05:09;;;;;;;6.05;2.40;;;;;;;19.29;32.33;95489.91;4994297;28;20223;-72
2021/06/02 04:07:39;;;;;;;3.20;2.40;;;;;;;19.83;31.51;95488.84;5009700;28;20663;-73
2021/06/02 04:10:11;;;;;;;3.83;2.30;;;;;;;20.88;28.97;95489.44;4993808;28;20191;-73
2021/06/02 04:12:55;;;;;;;3.33;1.92;;;;;;;21.38;28.06;95486.84;5010414;28;20308;-73
2021/06/02 04:15:23;;;;;;;2.42;2.22;;;;;;;22.09;27.56;95488.25;4993701;28;20206;-73
2021/06/02 04:17:49;;;;;;;5.90;2.17;;;;;;;22.05;26.81;95491.28;5010324;28;20213;-72
2021/06/02 04:20:16;;;;;;;2.30;2.10;;;;;;;21.81;26.77;95496.63;5018090;28;20607;-72
2021/06/02 04:22:45;;;;;;;4.78;2.28;;;;;;;21.99;26.76;95496.66;5034375;28;20174;-72
2021/06/02 04:25:13;;;;;;;2.53;2.13;;;;;;;22.51;26.00;95497.09;5051141;28;20220;-72
2021/06/02 04:27:39;;;;;;;3.20;2.60;;;;;;;23.96;23.57;95500.22;5034367;28;20283;-72
2021/06/02 04:30:06;;;;;;;2.30;1.88;;;;;;;24.51;23.21;95507.75;5049748;28;20193;-72
2021/06/02 04:32:42;;;;;;;4.97;2.20;;;;;;;23.63;24.01;95507.94;5050662;28;20173;-72
2021/06/02 04:35:10;;;;;;;2.45;2.20;;;;;;;24.17;23.50;95508.59;5050959;28;20189;-72
2021/06/02 04:37:36;;;;;;;4.30;2.28;;;;;;;24.90;21.98;95513.25;5050116;28;20272;-73
2021/06/02 04:40:04;;;;;;;2.78;1.80;;;;;;;26.25;21.58;95511.44;5049883;28;20639;-73
2021/06/02 04:42:30;;;;;;;2.97;2.13;;;;;;;25.91;20.83;95511.50;5050370;28;20192;-73
2021/06/02 04:44:55;;;;;;;3.85;2.30;;;;;;;25.54;21.59;95513.84;5050646;28;20213;-73
2021/06/02 04:47:22;;;;;;;2.58;2.30;;;;;;;26.93;19.83;95514.63;5050759;28;20654;-73
2021/06/02 04:50:18;;;;;;;1.98;1.77;;;;;;;27.57;18.47;95515.53;5050875;28;20182;-73
2021/06/02 04:53:05;;;;;;;2.00;1.70;;;;;;;26.24;20.24;95521.28;5048899;28;20273;-72
2021/06/02 04:55:38;;;;;;;3.97;1.90;;;;;;;26.33;20.86;95520.84;5044910;28;20600;-73
2021/06/02 04:58:30;;;;;;;2.97;2.00;;;;;;;27.28;19.80;95515.00;5051841;28;20193;-73
2021/06/02 05:01:03;;;;;;;2.35;2.13;;;;;;;27.97;19.14;95529.44;5049331;28;20264;-72
2021/06/02 05:03:43;;;;;;;2.70;1.73;;;;;;;26.77;20.41;95524.34;5051281;28;20896;-73
2021/06/02 05:06:29;;;;;;;3.33;2.13;;;;;;;28.32;17.97;95527.00;5051720;28;20193;-73
2021/06/02 05:09:40;;;;;;;4.05;2.40;;;;;;;26.96;19.45;95538.94;5050359;28;20199;-73
2021/06/02 05:12:14;;;;;;;2.30;2.10;;;;;;;27.23;19.38;95536.31;5028975;28;20209;-74
2021/06/02 05:15:14;;;;;;;8.07;2.17;;;;;;;26.88;20.23;95538.59;5049610;28;20201;-74
2021/06/02 05:18:10;;;;;;;7.07;2.30;;;;;;;27.69;19.39;95535.94;5045629;28;20193;-74
2021/06/02 05:23:48;;;;;;;4.38;1.98;;;;;;;28.38;18.61;95544.69;5043164;28;20225;-73
2021/06/02 05:26:56;;;;;;;2.78;2.03;;;;;;;27.69;19.26;95544.72;5049776;28;20208;-73
2021/06/02 05:29:43;;;;;;;2.90;1.90;;;;;;;28.87;18.65;95548.88;5051225;28;20260;-74
2021/06/02 05:32:23;;;;;;;2.30;2.10;;;;;;;29.56;17.71;95543.97;5050783;28;20283;-75
2021/06/02 05:35:29;;;;;;;2.28;2.10;;;;;;;29.06;17.82;95548.16;5050287;28;20212;-74
2021/06/02 05:38:16;;;;;;;2.30;2.10;;;;;;;28.48;18.77;95546.59;5045921;28;20197;-73
2021/06/02 05:40:50;;;;;;;3.15;2.00;;;;;;;28.56;18.15;95546.09;5050945;28;20209;-72
2021/06/02 05:43:52;;;;;;;2.75;1.80;;;;;;;28.04;18.69;95549.53;5049922;28;20263;-74
2021/06/02 05:46:55;;;;;;;2.28;2.00;;;;;;;28.78;18.36;95557.38;5081957;28;20578;-72
2021/06/02 05:49:40;;;;;;;4.03;2.33;;;;;;;28.31;18.66;95549.44;5054100;28;20212;-73
2021/06/02 05:52:29;;;;;;;2.63;2.22;;;;;;;28.09;19.20;95552.19;5053589;28;20239;-73
2021/06/02 05:55:23;;;;;;;3.53;2.40;;;;;;;29.65;17.48;95556.81;5052791;28;20205;-73
2021/06/02 05:57:51;;;;;;;2.42;2.20;;;;;;;29.61;17.22;95560.03;5042090;28;20735;-72
2021/06/02 06:00:51;;;;;;;3.25;2.13;;;;;;;28.50;18.54;95558.63;5054484;28;20635;-72
2021/06/02 06:03:38;;;;;;;4.25;2.28;;;;;;;28.66;18.58;95556.03;5054966;28;20316;-72
2021/06/02 06:06:28;;;;;;;5.72;2.13;;;;;;;28.87;17.86;95557.69;5053635;28;20224;-72
2021/06/02 06:08:56;;;;;;;3.10;2.00;;;;;;;28.02;18.74;95558.84;5054202;28;20221;-73
2021/06/02 06:11:40;;;;;;;4.78;2.00;;;;;;;29.11;17.93;95552.72;5054544;28;20169;-73
2021/06/02 06:14:22;;;;;;;3.80;2.10;;;;;;;28.05;18.25;95555.66;5054592;28;20287;-73
2021/06/02 06:17:13;;;;;;;2.25;2.00;;;;;;;28.76;18.46;95561.41;5052158;28;20637;-72
2021/06/02 06:19:50;;;;;;;2.30;2.10;;;;;;;29.10;17.90;95558.34;5048643;28;20269;-71
2021/06/02 06:22:33;;;;;;;5.25;2.08;;;;;;;27.64;20.12;95560.66;5054281;28;20170;-73
2021/06/02 06:25:03;;;;;;;2.88;1.90;;;;;;;28.02;19.43;95561.53;5053357;28;20193;-73
2021/06/02 06:27:47;;;;;;;2.45;2.05;;;;;;;28.04;19.12;95554.06;5053560;28;20173;-73
2021/06/02 06:30:22;;;;;;;2.65;1.70;;;;;;;28.70;18.36;95562.44;5054347;28;20199;-72
2021/06/02 06:32:50;;;;;;;4.25;2.03;;;;;;;28.66;18.17;95550.69;5053140;28;20174;-73
2021/06/02 06:35:16;;;;;;;2.47;2.13;;;;;;;28.03;18.81;95557.78;5053064;28;20203;-73
2021/06/02 06:37:47;;;;;;;2.30;2.05;;;;;;;27.97;19.10;95554.28;5050988;28;20209;-72
2021/06/02 06:40:15;;;;;;;2.28;2.00;;;;;;;28.78;18.77;95554.72;5052618;28;20708;-72
2021/06/02 06:42:42;;;;;;;3.67;1.80;;;;;;;28.54;18.63;95553.56;5052881;28;20876;-72
2021/06/02 06:45:11;;;;;;;2.90;1.90;;;;;;;29.09;17.86;95557.53;5035949;28;20227;-72
2021/06/02 06:47:37;;;;;;;4.25;2.13;;;;;;;28.98;18.06;95551.38;5051950;28;20691;-73
2021/06/02 06:50:13;;;;;;;3.90;1.90;;;;;;;27.81;19.81;95548.00;5027362;28;20191;-73
2021/06/02 06:52:43;;;;;;;3.30;2.47;;;;;;;28.10;19.69;95545.03;5045786;28;20221;-72
2021/06/02 06:55:09;;;;;;;4.22;1.88;;;;;;;29.78;17.67;95545.59;5051329;28;20239;-72
2021/06/02 06:57:36;;;;;;;2.15;1.95;;;;;;;28.94;17.96;95544.91;5052395;28;20669;-72
2021/06/02 07:00:04;;;;;;;3.83;1.90;;;;;;;28.90;17.88;95556.41;5033944;28;20208;-72
2021/06/02 07:02:30;;;;;;;2.03;1.83;;;;;;;30.59;15.92;95558.84;5053644;28;20673;-73
2021/06/02 07:04:57;;;;;;;2.50;1.90;;;;;;;28.63;18.14;95556.56;5030569;28;20201;-73
2021/06/02 07:07:24;;;;;;;3.88;2.03;;;;;;;29.47;16.99;95556.25;5071367;28;20664;-72
2021/06/02 07:09:49;;;;;;;2.13;1.92;;;;;;;28.30;18.56;95557.72;5052386;28;20759;-72
2021/06/02 07:12:20;;;;;;;3.45;2.15;;;;;;;28.64;19.18;95563.50;5052172;28;20182;-71
2021/06/02 07:14:48;;;;;;;3.67;1.90;;;;;;;28.64;18.28;95563.50;5035547;28;20939;-71
2021/06/02 07:17:14;;;;;;;5.38;2.00;;;;;;;27.80;19.49;95559.75;5052274;28;20212;-72
2021/06/02 07:19:43;;;;;;;4.95;2.17;;;;;;;28.36;19.51;95562.00;5051215;28;20194;-72
2021/06/02 07:22:09;;;;;;;3.53;2.38;;;;;;;28.17;19.79;95566.94;5053146;28;20200;-72
2021/06/02 07:24:35;;;;;;;4.80;2.17;;;;;;;27.62;19.71;95558.25;5035398;28;20677;-72
2021/06/02 07:27:00;;;;;;;3.22;2.20;;;;;;;27.84;20.12;95566.19;5052088;28;20169;-72
2021/06/02 07:29:27;;;;;;;1.95;1.75;;;;;;;27.82;19.72;95562.97;5034039;28;20805;-73
2021/06/02 07:31:52;;;;;;;2.88;1.95;;;;;;;27.49;21.17;95568.53;5051736;28;20783;-73
2021/06/02 07:34:20;;;;;;;3.60;2.50;;;;;;;27.63;20.85;95565.19;5052131;28;20189;-72
2021/06/02 07:36:45;;;;;;;5.18;2.45;;;;;;;27.05;21.52;95571.31;5052756;28;20182;-74
2021/06/02 07:39:10;;;;;;;3.70;2.10;;;;;;;28.56;19.00;95566.66;5050956;28;20178;-72
2021/06/02 07:41:36;;;;;;;3.33;2.15;;;;;;;27.94;19.97;95570.81;5052177;28;20209;-72
2021/06/02 07:44:01;;;;;;;1.90;1.80;;;;;;;27.47;19.56;95570.63;5051976;28;20197;-73
2021/06/02 07:46:26;;;;;;;4.97;1.92;;;;;;;28.00;18.48;95569.75;5051785;28;20181;-73
2021/06/02 07:48:52;;;;;;;2.85;2.20;;;;;;;27.98;18.59;95573.75;5035183;28;20180;-74
2021/06/02 07:51:18;;;;;;;5.60;2.08;;;;;;;25.66;22.00;95565.09;5051180;28;20189;-73
2021/06/02 07:53:43;;;;;;;5.22;2.40;;;;;;;25.10;23.17;95573.97;5051705;28;20205;-72
2021/06/02 07:56:08;;;;;;;3.25;2.00;;;;;;;25.56;22.71;95574.75;5052874;28;20537;-73
2021/06/02 07:58:34;;;;;;;5.22;2.65;;;;;;;25.80;22.28;95572.78;5052630;28;20198;-73
2021/06/02 08:00:59;;;;;;;5.13;2.25;;;;;;;24.60;23.91;95573.75;5051406;28;20186;-73
2021/06/02 08:03:24;;;;;;;4.40;2.10;;;;;;;24.95;24.93;95579.75;5052563;28;20201;-73
2021/06/02 08:05:50;;;;;;;4.43;2.65;;;;;;;25.00;24.89;95576.38;5051486;28;20209;-73
2021/06/02 08:08:15;;;;;;;4.30;2.30;;;;;;;25.14;24.54;95580.41;5052636;28;20182;-72
2021/06/02 08:10:40;;;;;;;2.90;1.98;;;;;;;24.88;25.02;95579.09;5033510;28;20205;-72
2021/06/02 08:13:06;;;;;;;2.45;1.80;;;;;;;25.21;25.39;95575.75;5049754;28;20190;-73
2021/06/02 08:15:31;;;;;;;2.15;1.95;;;;;;;24.76;24.97;95578.31;5034404;28;20178;-74
2021/06/02 08:17:57;;;;;;;3.67;1.95;;;;;;;23.81;26.39;95571.47;5034416;28;20553;-73
2021/06/02 08:20:22;;;;;;;2.60;2.28;;;;;;;24.53;25.43;95579.97;5050761;28;20277;-74
2021/06/02 08:22:48;;;;;;;4.35;2.25;;;;;;;24.34;27.47;95583.81;5050235;28;20269;-74
2021/06/02 08:25:15;;;;;;;2.60;2.30;;;;;;;24.40;27.50;95577.59;5050742;28;20579;-73
2021/06/02 08:27:41;;;;;;;4.45;2.65;;;;;;;24.01;28.48;95576.41;5050964;28;20166;-75
2021/06/02 08:30:08;;;;;;;4.35;2.40;;;;;;;23.35;29.25;95570.31;5050670;28;20181;-72
2021/06/02 08:32:40;;;;;;;5.50;2.55;;;;;;;24.13;28.24;95581.75;5066184;28;20593;-72
2021/06/02 08:35:08;;;;;;;3.88;2.35;;;;;;;24.24;27.51;95580.94;5068593;28;20591;-73
2021/06/02 08:37:33;;;;;;;2.78;2.20;;;;;;;23.94;26.79;95581.03;5068555;28;20271;-73
2021/06/02 08:39:59;;;;;;;5.13;2.25;;;;;;;24.20;26.10;95585.06;5068400;28;20265;-73
2021/06/02 08:42:24;;;;;;;4.18;2.30;;;;;;;24.08;27.54;95585.06;5067145;28;20275;-72
2021/06/02 08:44:51;;;;;;;4.13;2.30;;;;;;;23.11;28.19;95582.69;5066386;28;20208;-74
2021/06/02 08:47:17;;;;;;;3.55;1.85;;;;;;;22.95;27.99;95577.19;5067026;28;20200;-73
2021/06/02 08:49:42;;;;;;;3.63;1.90;;;;;;;23.60;28.04;95579.97;5067282;28;20636;-73
2021/06/02 08:52:08;;;;;;;2.85;2.60;;;;;;;23.00;27.36;95577.34;5068260;28;20211;-74
2021/06/02 08:54:34;;;;;;;5.05;2.13;;;;;;;22.78;28.23;95583.06;5065696;28;20224;-75
2021/06/02 08:57:04;;;;;;;4.43;2.60;;;;;;;22.63;27.57;95590.59;5067035;28;20533;-77
2021/06/02 08:59:31;;;;;;;5.25;2.28;;;;;;;22.48;28.68;95598.09;5050314;28;20185;-73
2021/06/02 09:01:58;;;;;;;3.42;2.40;;;;;;;22.81;27.90;95590.59;5066906;28;20176;-73
2021/06/02 09:04:23;;;;;;;3.05;2.53;;;;;;;22.97;27.14;95605.09;5064776;28;20202;-74
2021/06/02 09:06:49;;;;;;;3.08;2.28;;;;;;;23.06;27.51;95598.44;5062353;28;20186;-71
2021/06/02 09:09:16;;;;;;;2.40;2.20;;;;;;;23.46;27.31;95601.34;5067006;28;20219;-73
2021/06/02 09:11:44;;;;;;;3.90;2.10;;;;;;;23.17;27.29;95596.88;5066342;28;20208;-74
2021/06/02 09:14:30;;;;;;;4.28;2.40;;;;;;;23.40;27.84;95596.13;5066836;28;20665;-73
2021/06/02 09:17:04;;;;;;;2.28;2.00;;;;;;;23.87;26.78;95594.41;5064493;28;20235;-72
2021/06/02 09:19:43;;;;;;;3.00;2.05;;;;;;;23.64;27.19;95592.53;5048035;28;20188;-73
2021/06/02 09:22:16;;;;;;;6.53;2.28;;;;;;;23.58;27.03;95597.91;5047705;28;20522;-73
2021/06/02 09:24:59;;;;;;;3.72;2.50;;;;;;;23.91;27.96;95603.53;5046650;28;20240;-73
2021/06/02 09:27:46;;;;;;;2.97;2.40;;;;;;;24.16;27.86;95605.16;5061510;28;20177;-73
2021/06/02 09:30:13;;;;;;;2.65;2.30;;;;;;;24.46;26.70;95605.84;5066122;28;20181;-73
2021/06/02 09:32:44;;;;;;;2.75;2.20;;;;;;;24.28;25.86;95600.63;5049427;28;20189;-73
2021/06/02 09:35:10;;;;;;;4.70;2.15;;;;;;;24.25;26.44;95601.09;5049658;28;20289;-72
2021/06/02 09:37:54;;;;;;;2.35;2.15;;;;;;;24.04;27.59;95602.50;5066404;28;20243;-73
2021/06/02 09:40:28;;;;;;;2.40;1.90;;;;;;;24.58;24.59;95606.66;5065929;28;20177;-72
2021/06/02 09:42:54;;;;;;;2.30;2.10;;;;;;;24.82;23.81;95596.75;5059416;28;20624;-73
2021/06/02 09:45:21;;;;;;;3.35;2.10;;;;;;;23.76;24.00;95600.50;5054304;28;20189;-74
2021/06/02 09:47:52;;;;;;;4.10;2.40;;;;;;;23.65;24.22;95594.16;5052208;28;20178;-72
2021/06/02 09:50:29;;;;;;;2.42;2.20;;;;;;;24.25;24.70;95603.75;5052538;28;20227;-73
2021/06/02 09:52:56;;;;;;;5.63;1.83;;;;;;;24.42;24.55;95598.59;5055316;28;20542;-72
2021/06/02 09:55:34;;;;;;;2.58;2.00;;;;;;;23.83;23.90;95611.81;5052721;28;20201;-72
2021/06/02 09:58:06;;;;;;;5.40;2.08;;;;;;;23.24;24.29;95604.75;5036349;28;20241;-71
2021/06/02 10:00:33;;;;;;;4.78;2.33;;;;;;;23.64;25.47;95605.78;5056953;28;20186;-73
2021/06/02 10:02:59;;;;;;;1.95;1.85;;;;;;;23.60;23.57;95598.53;5056467;28;20205;-71
2021/06/02 10:05:26;;;;;;;3.65;2.10;;;;;;;24.31;22.93;95602.84;5061386;28;20174;-71
2021/06/02 10:07:51;;;;;;;3.10;1.90;;;;;;;24.40;22.92;95611.28;5057868;28;20217;-71
2021/06/02 10:10:19;;;;;;;3.92;2.30;;;;;;;24.26;22.43;95603.53;5040852;28;20285;-71
2021/06/02 10:13:06;;;;;;;5.95;2.28;;;;;;;24.17;22.22;95601.44;5029952;28;20246;-72
2021/06/02 10:15:45;;;;;;;4.57;1.90;;;;;;;24.52;23.44;95607.56;5012758;28;20171;-72
2021/06/02 10:18:27;;;;;;;3.20;2.38;;;;;;;24.27;22.71;95604.31;5012304;28;20186;-72
2021/06/02 10:21:08;;;;;;;6.57;1.95;;;;;;;24.21;22.60;95600.78;4994835;28;20179;-71
2021/06/02 10:23:36;;;;;;;1.75;1.65;;;;;;;24.53;24.67;95605.72;4994019;28;20200;-72
2021/06/02 10:26:06;;;;;;;3.17;2.25;;;;;;;24.68;23.42;95610.56;5000136;28;20241;-72
2021/06/02 10:28:32;;;;;;;2.65;1.98;;;;;;;25.01;22.57;95605.38;5009984;28;20179;-71
2021/06/02 10:30:58;;;;;;;3.63;2.28;;;;;;;25.39;22.14;95612.75;5008641;28;20207;-72
2021/06/02 10:33:23;;;;;;;2.40;2.20;;;;;;;25.04;22.53;95610.25;5012148;28;20203;-73
2021/06/02 10:35:49;;;;;;;3.83;2.33;;;;;;;24.31;24.87;95613.47;5012059;28;20179;-72
2021/06/02 10:38:16;;;;;;;3.97;2.08;;;;;;;24.17;24.95;95601.44;5013604;28;20171;-72
2021/06/02 10:40:42;;;;;;;3.30;2.70;;;;;;;24.34;25.17;95612.22;5010923;28;20704;-72
2021/06/02 10:43:18;;;;;;;7.53;2.42;;;;;;;24.20;25.68;95604.44;5011912;28;20183;-72
2021/06/02 10:45:47;;;;;;;4.35;1.85;;;;;;;24.44;26.34;95605.28;5005566;28;20186;-73
2021/06/02 10:48:13;;;;;;;3.90;2.50;;;;;;;24.45;26.39;95611.38;4995562;28;20228;-73
2021/06/02 10:50:45;;;;;;;5.25;2.45;;;;;;;24.38;24.79;95598.22;4995250;28;20195;-72
2021/06/02 10:53:20;;;;;;;3.25;2.40;;;;;;;23.83;26.56;95606.50;5000667;28;20194;-73
2021/06/02 10:55:53;;;;;;;4.82;2.25;;;;;;;23.88;26.64;95611.94;5027218;28;20237;-72
2021/06/02 10:58:24;;;;;;;3.38;2.20;;;;;;;24.65;25.19;95603.88;5011886;28;20175;-73
2021/06/02 11:00:52;;;;;;;4.57;2.25;;;;;;;24.74;25.42;95602.47;5012830;28;20589;-73
2021/06/02 11:03:17;;;;;;;7.22;2.50;;;;;;;24.82;25.80;95609.22;5009042;28;20229;-73
2021/06/02 11:05:43;;;;;;;6.13;2.20;;;;;;;24.97;25.18;95609.53;5013008;28;20210;-72
2021/06/02 11:08:08;;;;;;;2.97;2.40;;;;;;;25.03;25.17;95624.56;5011553;28;20175;-73
2021/06/02 11:10:33;;;;;;;5.03;2.20;;;;;;;25.43;23.23;95616.53;5010921;28;20191;-74
2021/06/02 11:13:04;;;;;;;3.78;2.10;;;;;;;24.83;24.68;95619.66;5010259;28;20183;-72
2021/06/02 11:15:35;;;;;;;6.43;2.65;;;;;;;24.32;25.97;95619.59;5011491;28;20182;-72
2021/06/02 11:18:10;;;;;;;4.30;2.53;;;;;;;23.85;26.26;95617.69;5011633;28;20194;-73
2021/06/02 11:20:46;;;;;;;6.72;2.35;;;;;;;23.89;25.66;95616.22;5012374;28;20669;-72
2021/06/02 11:23:16;;;;;;;2.65;2.30;;;;;;;24.38;25.69;95616.00;5010145;28;20186;-72
2021/06/02 11:25:42;;;;;;;6.47;2.58;;;;;;;24.44;26.33;95610.56;5011736;28;20663;-72
2021/06/02 11:28:29;;;;;;;2.42;2.20;;;;;;;24.34;25.96;95615.66;5011191;28;20187;-72
2021/06/02 11:31:26;;;;;;;4.15;2.17;;;;;;;24.94;24.78;95622.50;5011857;28;20308;-72
2021/06/02 11:33:52;;;;;;;2.60;1.85;;;;;;;25.25;24.24;95614.09;5009962;28;20214;-73
2021/06/02 11:36:18;;;;;;;2.53;2.22;;;;;;;25.63;23.53;95620.63;5009958;28;20270;-72
2021/06/02 11:38:44;;;;;;;3.03;1.80;;;;;;;25.35;23.46;95613.47;5010423;28;20266;-73
2021/06/02 11:41:11;;;;;;;4.30;2.22;;;;;;;26.07;24.03;95626.97;4994492;28;20183;-74
2021/06/02 11:43:37;;;;;;;5.68;2.38;;;;;;;26.26;23.49;95617.66;5011110;28;20191;-73
2021/06/02 11:46:03;;;;;;;4.43;2.17;;;;;;;26.06;22.99;95617.38;5008766;28;20214;-73
2021/06/02 11:48:30;;;;;;;4.40;1.95;;;;;;;25.88;23.40;95615.72;5011829;28;20591;-73
2021/06/02 11:50:59;;;;;;;4.53;2.20;;;;;;;25.69;24.38;95615.13;5011858;28;20195;-73
2021/06/02 11:53:35;;;;;;;4.88;2.33;;;;;;;25.77;24.30;95626.44;5010114;28;20233;-73
2021/06/02 11:56:00;;;;;;;2.92;2.40;;;;;;;25.52;24.73;95621.47;5009650;28;20217;-72
2021/06/02 11:58:27;;;;;;;3.80;1.98;;;;;;;25.73;24.02;95620.81;5011883;28;20210;-72
2021/06/02 12:00:52;;;;;;;4.50;2.38;;;;;;;24.98;25.07;95624.44;5010407;28;20605;-73
2021/06/02 12:03:17;;;;;;;4.70;2.47;;;;;;;25.36;23.54;95618.56;5010466;28;20202;-73
2021/06/02 12:05:43;;;;;;;2.20;1.90;;;;;;;25.68;23.81;95621.50;5006776;28;20532;-73
2021/06/02 12:08:10;;;;;;;2.38;2.17;;;;;;;26.12;23.49;95621.69;5010292;28;20642;-73